sensor_id;sensor_type;location;lat;lon;timestamp;P1;durP1;ratioP1;P2;durP2;ratioP2
55718;SDS011;41623;46.104;19.656;2023-01-10T00:01:14;3.90;;;2.55;;
55718;SDS011;41623;46.104;19.656;2023-01-10T00:03:40;8.02;;;2.53;;
55718;SDS011;41623;46.104;19.656;2023-01-10T00:06:06;4.60;;;2.65;;
55718;SDS011;41623;46.104;19.656;2023-01-10T00:08:32;4.00;;;2.78;;
55718;SDS011;41623;46.104;19.656;2023-01-10T00:10:58;2.50;;;1.95;;
55718;SDS011;41623;46.104;19.656;2023-01-10T00:13:44;3.10;;;2.63;;
55718;SDS011;41623;46.104;19.656;2023-01-10T00:16:10;2.95;;;2.10;;
55718;SDS011;41623;46.104;19.656;2023-01-10T00:18:36;6.13;;;2.60;;
55718;SDS011;41623;46.104;19.656;2023-01-10T00:21:02;2.80;;;2.17;;
55718;SDS011;41623;46.104;19.656;2023-01-10T00:23:30;3.50;;;2.35;;
55718;SDS011;41623;46.104;19.656;2023-01-10T00:25:56;4.97;;;2.92;;
55718;SDS011;41623;46.104;19.656;2023-01-10T00:28:22;6.53;;;2.90;;
55718;SDS011;41623;46.104;19.656;2023-01-10T00:30:49;4.18;;;2.83;;
55718;SDS011;41623;46.104;19.656;2023-01-10T00:33:19;4.22;;;2.58;;
55718;SDS011;41623;46.104;19.656;2023-01-10T00:35:45;4.18;;;2.80;;
55718;SDS011;41623;46.104;19.656;2023-01-10T00:38:12;5.57;;;2.67;;
55718;SDS011;41623;46.104;19.656;2023-01-10T00:40:40;3.53;;;2.70;;
55718;SDS011;41623;46.104;19.656;2023-01-10T00:43:07;5.05;;;2.25;;
55718;SDS011;41623;46.104;19.656;2023-01-10T00:45:52;4.78;;;2.30;;
55718;SDS011;41623;46.104;19.656;2023-01-10T00:48:18;2.08;;;1.83;;
55718;SDS011;41623;46.104;19.656;2023-01-10T00:50:44;3.58;;;1.98;;
55718;SDS011;41623;46.104;19.656;2023-01-10T00:53:10;4.80;;;1.83;;
55718;SDS011;41623;46.104;19.656;2023-01-10T00:55:36;3.38;;;1.95;;
55718;SDS011;41623;46.104;19.656;2023-01-10T00:58:03;2.67;;;1.92;;
55718;SDS011;41623;46.104;19.656;2023-01-10T01:00:29;3.10;;;1.77;;
55718;SDS011;41623;46.104;19.656;2023-01-10T01:02:55;2.22;;;1.92;;
55718;SDS011;41623;46.104;19.656;2023-01-10T01:05:21;3.63;;;2.10;;
55718;SDS011;41623;46.104;19.656;2023-01-10T01:07:50;1.80;;;1.70;;
55718;SDS011;41623;46.104;19.656;2023-01-10T01:10:17;1.85;;;1.48;;
55718;SDS011;41623;46.104;19.656;2023-01-10T01:12:59;3.03;;;1.42;;
55718;SDS011;41623;46.104;19.656;2023-01-10T01:15:25;3.67;;;2.03;;
55718;SDS011;41623;46.104;19.656;2023-01-10T01:17:52;1.17;;;1.13;;
55718;SDS011;41623;46.104;19.656;2023-01-10T01:20:18;1.60;;;1.50;;
55718;SDS011;41623;46.104;19.656;2023-01-10T01:22:45;4.03;;;2.03;;
55718;SDS011;41623;46.104;19.656;2023-01-10T01:25:11;5.10;;;1.65;;
55718;SDS011;41623;46.104;19.656;2023-01-10T01:27:38;2.72;;;2.08;;
55718;SDS011;41623;46.104;19.656;2023-01-10T01:30:04;2.25;;;1.80;;
55718;SDS011;41623;46.104;19.656;2023-01-10T01:32:31;1.65;;;1.50;;
55718;SDS011;41623;46.104;19.656;2023-01-10T01:34:57;1.70;;;1.60;;
55718;SDS011;41623;46.104;19.656;2023-01-10T01:37:23;2.50;;;1.33;;
55718;SDS011;41623;46.104;19.656;2023-01-10T01:39:49;4.93;;;2.70;;
55718;SDS011;41623;46.104;19.656;2023-01-10T01:42:34;1.70;;;1.52;;
55718;SDS011;41623;46.104;19.656;2023-01-10T01:47:33;3.03;;;2.30;;
55718;SDS011;41623;46.104;19.656;2023-01-10T01:50:00;5.57;;;1.75;;
55718;SDS011;41623;46.104;19.656;2023-01-10T01:52:27;2.47;;;1.67;;
55718;SDS011;41623;46.104;19.656;2023-01-10T01:54:55;1.60;;;1.50;;
55718;SDS011;41623;46.104;19.656;2023-01-10T01:57:22;1.33;;;1.23;;
55718;SDS011;41623;46.104;19.656;2023-01-10T01:59:49;1.55;;;1.35;;
55718;SDS011;41623;46.104;19.656;2023-01-10T02:02:21;1.83;;;1.70;;
55718;SDS011;41623;46.104;19.656;2023-01-10T02:07:20;2.67;;;2.05;;
55718;SDS011;41623;46.104;19.656;2023-01-10T02:12:13;2.42;;;1.77;;
55718;SDS011;41623;46.104;19.656;2023-01-10T02:14:39;3.97;;;2.70;;
55718;SDS011;41623;46.104;19.656;2023-01-10T02:17:10;2.80;;;1.92;;
55718;SDS011;41623;46.104;19.656;2023-01-10T02:22:51;10.13;;;2.58;;
55718;SDS011;41623;46.104;19.656;2023-01-10T02:30:46;3.15;;;1.75;;
55718;SDS011;41623;46.104;19.656;2023-01-10T02:33:17;1.38;;;1.25;;
55718;SDS011;41623;46.104;19.656;2023-01-10T02:35:57;1.98;;;1.65;;
55718;SDS011;41623;46.104;19.656;2023-01-10T02:44:06;3.63;;;1.90;;
55718;SDS011;41623;46.104;19.656;2023-01-10T02:46:36;4.70;;;2.38;;
55718;SDS011;41623;46.104;19.656;2023-01-10T02:49:03;2.65;;;1.60;;
55718;SDS011;41623;46.104;19.656;2023-01-10T02:51:30;8.50;;;2.92;;
55718;SDS011;41623;46.104;19.656;2023-01-10T02:54:04;6.05;;;2.58;;
55718;SDS011;41623;46.104;19.656;2023-01-10T02:56:52;3.30;;;2.70;;
55718;SDS011;41623;46.104;19.656;2023-01-10T03:02:21;4.70;;;2.10;;
55718;SDS011;41623;46.104;19.656;2023-01-10T03:07:24;6.63;;;3.45;;
55718;SDS011;41623;46.104;19.656;2023-01-10T03:12:20;4.78;;;2.60;;
55718;SDS011;41623;46.104;19.656;2023-01-10T03:14:48;3.65;;;2.60;;
55718;SDS011;41623;46.104;19.656;2023-01-10T03:17:15;2.80;;;2.05;;
55718;SDS011;41623;46.104;19.656;2023-01-10T03:19:42;7.40;;;2.67;;
55718;SDS011;41623;46.104;19.656;2023-01-10T03:22:09;4.18;;;3.05;;
55718;SDS011;41623;46.104;19.656;2023-01-10T03:24:37;3.70;;;2.58;;
55718;SDS011;41623;46.104;19.656;2023-01-10T03:32:22;4.43;;;2.30;;
55718;SDS011;41623;46.104;19.656;2023-01-10T03:34:49;6.28;;;3.05;;
55718;SDS011;41623;46.104;19.656;2023-01-10T03:42:28;8.02;;;3.85;;
55718;SDS011;41623;46.104;19.656;2023-01-10T03:45:16;8.85;;;3.80;;
55718;SDS011;41623;46.104;19.656;2023-01-10T03:47:47;7.15;;;3.33;;
55718;SDS011;41623;46.104;19.656;2023-01-10T03:50:16;8.10;;;3.67;;
55718;SDS011;41623;46.104;19.656;2023-01-10T03:52:43;5.18;;;3.50;;
55718;SDS011;41623;46.104;19.656;2023-01-10T03:55:10;6.47;;;3.88;;
55718;SDS011;41623;46.104;19.656;2023-01-10T03:57:40;10.32;;;3.58;;
55718;SDS011;41623;46.104;19.656;2023-01-10T04:00:07;5.40;;;3.47;;
55718;SDS011;41623;46.104;19.656;2023-01-10T04:02:33;5.05;;;3.25;;
55718;SDS011;41623;46.104;19.656;2023-01-10T04:04:59;7.63;;;3.28;;
55718;SDS011;41623;46.104;19.656;2023-01-10T04:07:25;4.88;;;2.63;;
55718;SDS011;41623;46.104;19.656;2023-01-10T04:09:52;6.88;;;3.75;;
55718;SDS011;41623;46.104;19.656;2023-01-10T04:12:18;4.63;;;3.03;;
55718;SDS011;41623;46.104;19.656;2023-01-10T04:14:44;4.03;;;3.05;;
55718;SDS011;41623;46.104;19.656;2023-01-10T04:17:11;5.70;;;3.97;;
55718;SDS011;41623;46.104;19.656;2023-01-10T04:19:37;7.90;;;3.63;;
55718;SDS011;41623;46.104;19.656;2023-01-10T04:22:03;5.55;;;3.38;;
55718;SDS011;41623;46.104;19.656;2023-01-10T04:24:32;4.47;;;2.72;;
55718;SDS011;41623;46.104;19.656;2023-01-10T04:26:58;5.60;;;3.17;;
55718;SDS011;41623;46.104;19.656;2023-01-10T04:29:24;3.17;;;2.13;;
55718;SDS011;41623;46.104;19.656;2023-01-10T04:31:51;3.28;;;1.90;;
55718;SDS011;41623;46.104;19.656;2023-01-10T04:34:17;4.47;;;2.42;;
55718;SDS011;41623;46.104;19.656;2023-01-10T04:36:46;6.45;;;3.40;;
55718;SDS011;41623;46.104;19.656;2023-01-10T04:39:12;2.53;;;2.33;;
55718;SDS011;41623;46.104;19.656;2023-01-10T04:41:38;6.93;;;3.92;;
55718;SDS011;41623;46.104;19.656;2023-01-10T04:44:04;3.30;;;1.92;;
55718;SDS011;41623;46.104;19.656;2023-01-10T04:46:31;4.20;;;3.65;;
55718;SDS011;41623;46.104;19.656;2023-01-10T04:48:57;4.32;;;3.10;;
55718;SDS011;41623;46.104;19.656;2023-01-10T04:51:23;5.43;;;2.85;;
55718;SDS011;41623;46.104;19.656;2023-01-10T04:53:49;6.65;;;4.13;;
55718;SDS011;41623;46.104;19.656;2023-01-10T04:56:17;6.80;;;4.03;;
55718;SDS011;41623;46.104;19.656;2023-01-10T04:58:43;9.05;;;3.95;;
55718;SDS011;41623;46.104;19.656;2023-01-10T05:01:10;8.90;;;4.28;;
55718;SDS011;41623;46.104;19.656;2023-01-10T05:03:36;7.10;;;3.50;;
55718;SDS011;41623;46.104;19.656;2023-01-10T05:06:03;10.25;;;4.28;;
55718;SDS011;41623;46.104;19.656;2023-01-10T05:08:29;8.98;;;5.43;;
55718;SDS011;41623;46.104;19.656;2023-01-10T05:10:55;12.65;;;5.28;;
55718;SDS011;41623;46.104;19.656;2023-01-10T05:13:21;5.15;;;3.65;;
55718;SDS011;41623;46.104;19.656;2023-01-10T05:15:47;4.18;;;2.70;;
55718;SDS011;41623;46.104;19.656;2023-01-10T05:18:13;8.27;;;4.32;;
55718;SDS011;41623;46.104;19.656;2023-01-10T05:20:39;5.78;;;3.45;;
55718;SDS011;41623;46.104;19.656;2023-01-10T05:23:05;5.85;;;3.50;;
55718;SDS011;41623;46.104;19.656;2023-01-10T05:25:31;4.03;;;3.10;;
55718;SDS011;41623;46.104;19.656;2023-01-10T05:27:57;4.43;;;3.50;;
55718;SDS011;41623;46.104;19.656;2023-01-10T05:30:23;6.88;;;3.97;;
55718;SDS011;41623;46.104;19.656;2023-01-10T05:32:49;3.75;;;3.10;;
55718;SDS011;41623;46.104;19.656;2023-01-10T05:35:15;5.38;;;3.53;;
55718;SDS011;41623;46.104;19.656;2023-01-10T05:37:41;7.38;;;3.72;;
55718;SDS011;41623;46.104;19.656;2023-01-10T05:40:07;5.15;;;3.72;;
55718;SDS011;41623;46.104;19.656;2023-01-10T05:42:34;5.47;;;2.42;;
55718;SDS011;41623;46.104;19.656;2023-01-10T05:45:00;5.85;;;3.28;;
55718;SDS011;41623;46.104;19.656;2023-01-10T05:47:26;5.15;;;2.92;;
55718;SDS011;41623;46.104;19.656;2023-01-10T05:49:52;15.15;;;3.35;;
55718;SDS011;41623;46.104;19.656;2023-01-10T05:52:18;13.43;;;4.68;;
55718;SDS011;41623;46.104;19.656;2023-01-10T05:54:44;6.82;;;3.38;;
55718;SDS011;41623;46.104;19.656;2023-01-10T05:57:10;16.80;;;4.72;;
55718;SDS011;41623;46.104;19.656;2023-01-10T05:59:36;14.27;;;5.03;;
55718;SDS011;41623;46.104;19.656;2023-01-10T06:02:02;6.95;;;4.00;;
55718;SDS011;41623;46.104;19.656;2023-01-10T06:04:28;9.65;;;4.47;;
55718;SDS011;41623;46.104;19.656;2023-01-10T06:06:54;5.72;;;2.95;;
55718;SDS011;41623;46.104;19.656;2023-01-10T06:09:20;17.65;;;5.85;;
55718;SDS011;41623;46.104;19.656;2023-01-10T06:11:46;10.45;;;5.65;;
55718;SDS011;41623;46.104;19.656;2023-01-10T06:14:12;10.18;;;3.90;;
55718;SDS011;41623;46.104;19.656;2023-01-10T06:16:43;16.98;;;5.50;;
55718;SDS011;41623;46.104;19.656;2023-01-10T06:19:09;9.27;;;4.65;;
55718;SDS011;41623;46.104;19.656;2023-01-10T06:21:35;4.78;;;3.13;;
55718;SDS011;41623;46.104;19.656;2023-01-10T06:24:01;6.22;;;3.97;;
55718;SDS011;41623;46.104;19.656;2023-01-10T06:26:27;1.67;;;1.48;;
55718;SDS011;41623;46.104;19.656;2023-01-10T06:28:53;2.55;;;1.55;;
55718;SDS011;41623;46.104;19.656;2023-01-10T06:31:19;2.67;;;1.50;;
55718;SDS011;41623;46.104;19.656;2023-01-10T06:33:45;2.05;;;1.30;;
55718;SDS011;41623;46.104;19.656;2023-01-10T06:36:11;1.55;;;1.23;;
55718;SDS011;41623;46.104;19.656;2023-01-10T06:38:37;5.45;;;1.65;;
55718;SDS011;41623;46.104;19.656;2023-01-10T06:41:03;1.73;;;1.50;;
55718;SDS011;41623;46.104;19.656;2023-01-10T06:43:40;1.73;;;1.60;;
55718;SDS011;41623;46.104;19.656;2023-01-10T06:46:06;1.17;;;1.02;;
55718;SDS011;41623;46.104;19.656;2023-01-10T06:48:34;2.65;;;1.55;;
55718;SDS011;41623;46.104;19.656;2023-01-10T06:51:00;6.22;;;2.97;;
55718;SDS011;41623;46.104;19.656;2023-01-10T06:53:27;4.32;;;2.10;;
55718;SDS011;41623;46.104;19.656;2023-01-10T06:55:53;1.77;;;1.52;;
55718;SDS011;41623;46.104;19.656;2023-01-10T06:58:20;2.83;;;1.98;;
55718;SDS011;41623;46.104;19.656;2023-01-10T07:00:46;3.13;;;1.55;;
55718;SDS011;41623;46.104;19.656;2023-01-10T07:03:12;1.85;;;1.58;;
55718;SDS011;41623;46.104;19.656;2023-01-10T07:05:38;4.35;;;2.50;;
55718;SDS011;41623;46.104;19.656;2023-01-10T07:08:04;1.40;;;1.27;;
55718;SDS011;41623;46.104;19.656;2023-01-10T07:10:30;3.22;;;1.60;;
55718;SDS011;41623;46.104;19.656;2023-01-10T07:12:56;2.17;;;1.55;;
55718;SDS011;41623;46.104;19.656;2023-01-10T07:15:22;3.00;;;1.83;;
55718;SDS011;41623;46.104;19.656;2023-01-10T07:17:49;3.20;;;1.98;;
55718;SDS011;41623;46.104;19.656;2023-01-10T07:20:15;1.45;;;1.35;;
55718;SDS011;41623;46.104;19.656;2023-01-10T07:22:41;3.20;;;1.70;;
55718;SDS011;41623;46.104;19.656;2023-01-10T07:25:07;2.85;;;1.85;;
55718;SDS011;41623;46.104;19.656;2023-01-10T07:27:33;1.88;;;1.70;;
55718;SDS011;41623;46.104;19.656;2023-01-10T07:29:59;5.13;;;2.58;;
55718;SDS011;41623;46.104;19.656;2023-01-10T07:32:25;1.83;;;1.65;;
55718;SDS011;41623;46.104;19.656;2023-01-10T07:34:51;6.78;;;1.50;;
55718;SDS011;41623;46.104;19.656;2023-01-10T07:37:17;6.63;;;2.08;;
55718;SDS011;41623;46.104;19.656;2023-01-10T07:39:44;2.50;;;1.60;;
55718;SDS011;41623;46.104;19.656;2023-01-10T07:42:10;2.70;;;2.30;;
55718;SDS011;41623;46.104;19.656;2023-01-10T07:44:36;2.90;;;2.47;;
55718;SDS011;41623;46.104;19.656;2023-01-10T07:47:02;5.75;;;2.45;;
55718;SDS011;41623;46.104;19.656;2023-01-10T07:49:28;4.38;;;1.80;;
55718;SDS011;41623;46.104;19.656;2023-01-10T07:51:54;2.22;;;1.45;;
55718;SDS011;41623;46.104;19.656;2023-01-10T07:54:20;1.92;;;1.70;;
55718;SDS011;41623;46.104;19.656;2023-01-10T07:56:46;3.63;;;2.50;;
55718;SDS011;41623;46.104;19.656;2023-01-10T07:59:14;3.72;;;2.50;;
55718;SDS011;41623;46.104;19.656;2023-01-10T08:01:40;4.97;;;2.85;;
55718;SDS011;41623;46.104;19.656;2023-01-10T08:04:06;2.40;;;1.63;;
55718;SDS011;41623;46.104;19.656;2023-01-10T08:06:32;4.78;;;2.15;;
55718;SDS011;41623;46.104;19.656;2023-01-10T08:08:58;2.30;;;1.95;;
55718;SDS011;41623;46.104;19.656;2023-01-10T08:11:24;2.00;;;1.80;;
55718;SDS011;41623;46.104;19.656;2023-01-10T08:13:50;3.40;;;2.20;;
55718;SDS011;41623;46.104;19.656;2023-01-10T08:16:16;2.05;;;1.83;;
55718;SDS011;41623;46.104;19.656;2023-01-10T08:18:44;4.53;;;2.60;;
55718;SDS011;41623;46.104;19.656;2023-01-10T08:21:10;2.30;;;2.08;;
55718;SDS011;41623;46.104;19.656;2023-01-10T08:23:36;1.50;;;1.40;;
55718;SDS011;41623;46.104;19.656;2023-01-10T08:26:02;2.05;;;1.85;;
55718;SDS011;41623;46.104;19.656;2023-01-10T08:28:29;4.38;;;2.28;;
55718;SDS011;41623;46.104;19.656;2023-01-10T08:30:56;4.13;;;2.78;;
55718;SDS011;41623;46.104;19.656;2023-01-10T08:33:22;6.55;;;3.42;;
55718;SDS011;41623;46.104;19.656;2023-01-10T08:35:49;5.65;;;2.80;;
55718;SDS011;41623;46.104;19.656;2023-01-10T08:38:15;6.60;;;2.47;;
55718;SDS011;41623;46.104;19.656;2023-01-10T08:40:41;8.65;;;2.83;;
55718;SDS011;41623;46.104;19.656;2023-01-10T08:43:10;3.15;;;2.05;;
55718;SDS011;41623;46.104;19.656;2023-01-10T08:45:37;8.27;;;2.78;;
55718;SDS011;41623;46.104;19.656;2023-01-10T08:48:04;4.32;;;2.83;;
55718;SDS011;41623;46.104;19.656;2023-01-10T08:50:30;7.97;;;3.55;;
55718;SDS011;41623;46.104;19.656;2023-01-10T08:52:57;11.55;;;4.35;;
55718;SDS011;41623;46.104;19.656;2023-01-10T08:55:23;8.20;;;2.88;;
55718;SDS011;41623;46.104;19.656;2023-01-10T08:57:49;4.68;;;2.72;;
55718;SDS011;41623;46.104;19.656;2023-01-10T09:00:16;2.47;;;1.90;;
55718;SDS011;41623;46.104;19.656;2023-01-10T09:02:42;6.45;;;3.05;;
55718;SDS011;41623;46.104;19.656;2023-01-10T09:05:08;7.32;;;2.65;;
55718;SDS011;41623;46.104;19.656;2023-01-10T09:07:35;7.00;;;3.50;;
55718;SDS011;41623;46.104;19.656;2023-01-10T09:10:01;2.90;;;1.92;;
55718;SDS011;41623;46.104;19.656;2023-01-10T09:12:27;1.58;;;1.45;;
55718;SDS011;41623;46.104;19.656;2023-01-10T09:15:11;2.38;;;1.75;;
55718;SDS011;41623;46.104;19.656;2023-01-10T09:17:38;2.22;;;2.03;;
55718;SDS011;41623;46.104;19.656;2023-01-10T09:20:04;3.78;;;2.63;;
55718;SDS011;41623;46.104;19.656;2023-01-10T09:22:34;4.68;;;3.20;;
55718;SDS011;41623;46.104;19.656;2023-01-10T09:25:00;7.18;;;3.28;;
55718;SDS011;41623;46.104;19.656;2023-01-10T09:27:26;3.45;;;2.33;;
55718;SDS011;41623;46.104;19.656;2023-01-10T09:29:52;3.03;;;1.85;;
55718;SDS011;41623;46.104;19.656;2023-01-10T09:32:18;3.50;;;2.47;;
55718;SDS011;41623;46.104;19.656;2023-01-10T09:34:44;4.90;;;3.17;;
55718;SDS011;41623;46.104;19.656;2023-01-10T09:37:10;2.90;;;2.53;;
55718;SDS011;41623;46.104;19.656;2023-01-10T09:39:36;5.90;;;3.22;;
55718;SDS011;41623;46.104;19.656;2023-01-10T09:47:34;6.97;;;3.50;;
55718;SDS011;41623;46.104;19.656;2023-01-10T09:52:29;4.20;;;2.63;;
55718;SDS011;41623;46.104;19.656;2023-01-10T09:54:56;4.50;;;2.92;;
55718;SDS011;41623;46.104;19.656;2023-01-10T09:57:22;2.72;;;2.00;;
55718;SDS011;41623;46.104;19.656;2023-01-10T09:59:50;7.07;;;1.98;;
55718;SDS011;41623;46.104;19.656;2023-01-10T10:02:22;4.70;;;2.60;;
55718;SDS011;41623;46.104;19.656;2023-01-10T10:04:57;7.45;;;2.97;;
55718;SDS011;41623;46.104;19.656;2023-01-10T10:07:25;3.53;;;2.20;;
55718;SDS011;41623;46.104;19.656;2023-01-10T10:09:51;3.67;;;2.30;;
55718;SDS011;41623;46.104;19.656;2023-01-10T10:17:28;3.70;;;2.22;;
55718;SDS011;41623;46.104;19.656;2023-01-10T10:20:12;9.25;;;3.35;;
55718;SDS011;41623;46.104;19.656;2023-01-10T10:35:33;8.32;;;4.18;;
55718;SDS011;41623;46.104;19.656;2023-01-10T10:38:03;13.95;;;5.55;;
55718;SDS011;41623;46.104;19.656;2023-01-10T10:40:35;15.68;;;6.05;;
55718;SDS011;41623;46.104;19.656;2023-01-10T10:43:10;34.70;;;10.88;;
55718;SDS011;41623;46.104;19.656;2023-01-10T10:45:40;27.35;;;12.82;;
55718;SDS011;41623;46.104;19.656;2023-01-10T10:48:23;13.57;;;5.60;;
55718;SDS011;41623;46.104;19.656;2023-01-10T10:53:25;6.97;;;4.07;;
55718;SDS011;41623;46.104;19.656;2023-01-10T10:55:51;13.02;;;6.63;;
55718;SDS011;41623;46.104;19.656;2023-01-10T10:58:17;8.90;;;4.97;;
55718;SDS011;41623;46.104;19.656;2023-01-10T11:00:43;3.22;;;2.92;;
55718;SDS011;41623;46.104;19.656;2023-01-10T11:05:45;7.38;;;4.45;;
55718;SDS011;41623;46.104;19.656;2023-01-10T11:08:13;5.63;;;2.75;;
55718;SDS011;41623;46.104;19.656;2023-01-10T11:10:41;3.50;;;2.15;;
55718;SDS011;41623;46.104;19.656;2023-01-10T11:18:08;1.98;;;1.77;;
55718;SDS011;41623;46.104;19.656;2023-01-10T11:20:35;4.00;;;2.40;;
55718;SDS011;41623;46.104;19.656;2023-01-10T11:23:01;3.35;;;2.60;;
55718;SDS011;41623;46.104;19.656;2023-01-10T11:25:28;5.07;;;3.38;;
55718;SDS011;41623;46.104;19.656;2023-01-10T11:27:55;4.03;;;1.67;;
55718;SDS011;41623;46.104;19.656;2023-01-10T11:30:22;1.80;;;1.70;;
55718;SDS011;41623;46.104;19.656;2023-01-10T11:35:19;1.85;;;1.42;;
55718;SDS011;41623;46.104;19.656;2023-01-10T11:37:57;1.48;;;1.38;;
55718;SDS011;41623;46.104;19.656;2023-01-10T11:40:24;2.40;;;2.13;;
55718;SDS011;41623;46.104;19.656;2023-01-10T11:42:51;2.50;;;1.65;;
55718;SDS011;41623;46.104;19.656;2023-01-10T11:45:22;1.50;;;1.40;;
55718;SDS011;41623;46.104;19.656;2023-01-10T11:48:15;1.98;;;1.63;;
55718;SDS011;41623;46.104;19.656;2023-01-10T11:50:47;1.95;;;1.63;;
55718;SDS011;41623;46.104;19.656;2023-01-10T11:55:55;2.28;;;1.55;;
55718;SDS011;41623;46.104;19.656;2023-01-10T11:58:21;2.65;;;1.77;;
55718;SDS011;41623;46.104;19.656;2023-01-10T12:00:47;3.05;;;1.73;;
55718;SDS011;41623;46.104;19.656;2023-01-10T12:05:56;2.53;;;1.65;;
55718;SDS011;41623;46.104;19.656;2023-01-10T12:08:33;3.17;;;2.47;;
55718;SDS011;41623;46.104;19.656;2023-01-10T12:11:02;2.50;;;1.27;;
55718;SDS011;41623;46.104;19.656;2023-01-10T12:13:29;1.33;;;1.23;;
55718;SDS011;41623;46.104;19.656;2023-01-10T12:16:15;2.00;;;1.52;;
55718;SDS011;41623;46.104;19.656;2023-01-10T12:18:42;1.73;;;1.63;;
55718;SDS011;41623;46.104;19.656;2023-01-10T12:21:08;2.95;;;1.70;;
55718;SDS011;41623;46.104;19.656;2023-01-10T12:23:34;3.20;;;1.95;;
55718;SDS011;41623;46.104;19.656;2023-01-10T12:26:05;1.90;;;1.55;;
55718;SDS011;41623;46.104;19.656;2023-01-10T12:28:31;3.15;;;2.17;;
55718;SDS011;41623;46.104;19.656;2023-01-10T12:30:58;2.22;;;1.65;;
55718;SDS011;41623;46.104;19.656;2023-01-10T12:33:42;3.00;;;1.85;;
55718;SDS011;41623;46.104;19.656;2023-01-10T12:38:54;2.42;;;1.83;;
55718;SDS011;41623;46.104;19.656;2023-01-10T12:44:19;1.88;;;1.38;;
55718;SDS011;41623;46.104;19.656;2023-01-10T12:46:47;1.45;;;1.35;;
55718;SDS011;41623;46.104;19.656;2023-01-10T12:49:20;3.00;;;1.85;;
55718;SDS011;41623;46.104;19.656;2023-01-10T12:51:48;1.50;;;1.40;;
55718;SDS011;41623;46.104;19.656;2023-01-10T12:54:15;1.98;;;1.77;;
55718;SDS011;41623;46.104;19.656;2023-01-10T12:56:43;2.05;;;1.55;;
55718;SDS011;41623;46.104;19.656;2023-01-10T12:59:13;13.20;;;5.50;;
55718;SDS011;41623;46.104;19.656;2023-01-10T13:01:43;5.55;;;3.78;;
55718;SDS011;41623;46.104;19.656;2023-01-10T13:04:16;1.80;;;1.70;;
55718;SDS011;41623;46.104;19.656;2023-01-10T13:06:43;2.00;;;1.77;;
55718;SDS011;41623;46.104;19.656;2023-01-10T13:09:14;5.60;;;4.07;;
55718;SDS011;41623;46.104;19.656;2023-01-10T13:11:42;4.32;;;2.83;;
55718;SDS011;41623;46.104;19.656;2023-01-10T13:14:10;4.18;;;2.97;;
55718;SDS011;41623;46.104;19.656;2023-01-10T13:21:31;3.42;;;2.00;;
55718;SDS011;41623;46.104;19.656;2023-01-10T13:24:05;1.98;;;1.73;;
55718;SDS011;41623;46.104;19.656;2023-01-10T13:26:53;2.95;;;1.90;;
55718;SDS011;41623;46.104;19.656;2023-01-10T13:29:39;2.33;;;1.92;;
55718;SDS011;41623;46.104;19.656;2023-01-10T13:32:15;4.70;;;2.20;;
55718;SDS011;41623;46.104;19.656;2023-01-10T13:34:44;1.85;;;1.63;;
55718;SDS011;41623;46.104;19.656;2023-01-10T13:37:11;1.95;;;1.65;;
55718;SDS011;41623;46.104;19.656;2023-01-10T13:39:41;3.20;;;1.95;;
55718;SDS011;41623;46.104;19.656;2023-01-10T13:42:11;4.10;;;2.63;;
55718;SDS011;41623;46.104;19.656;2023-01-10T13:52:51;2.33;;;1.67;;
55718;SDS011;41623;46.104;19.656;2023-01-10T13:55:22;2.72;;;1.63;;
55718;SDS011;41623;46.104;19.656;2023-01-10T14:00:22;3.45;;;2.10;;
55718;SDS011;41623;46.104;19.656;2023-01-10T14:03:07;2.92;;;2.03;;
55718;SDS011;41623;46.104;19.656;2023-01-10T14:05:33;4.20;;;2.97;;
55718;SDS011;41623;46.104;19.656;2023-01-10T14:07:59;5.43;;;2.00;;
55718;SDS011;41623;46.104;19.656;2023-01-10T14:10:29;3.80;;;2.83;;
55718;SDS011;41623;46.104;19.656;2023-01-10T14:12:57;4.40;;;3.28;;
55718;SDS011;41623;46.104;19.656;2023-01-10T14:15:25;4.25;;;2.85;;
55718;SDS011;41623;46.104;19.656;2023-01-10T14:18:00;4.28;;;2.55;;
55718;SDS011;41623;46.104;19.656;2023-01-10T14:20:27;4.22;;;3.17;;
55718;SDS011;41623;46.104;19.656;2023-01-10T14:22:58;2.60;;;2.33;;
55718;SDS011;41623;46.104;19.656;2023-01-10T14:25:25;4.15;;;2.55;;
55718;SDS011;41623;46.104;19.656;2023-01-10T14:27:52;4.30;;;2.90;;
55718;SDS011;41623;46.104;19.656;2023-01-10T14:30:25;4.07;;;2.33;;
55718;SDS011;41623;46.104;19.656;2023-01-10T14:32:52;5.55;;;3.80;;
55718;SDS011;41623;46.104;19.656;2023-01-10T14:35:20;6.97;;;4.22;;
55718;SDS011;41623;46.104;19.656;2023-01-10T14:37:52;4.70;;;3.70;;
55718;SDS011;41623;46.104;19.656;2023-01-10T14:42:46;5.28;;;2.45;;
55718;SDS011;41623;46.104;19.656;2023-01-10T14:50:51;4.75;;;2.47;;
55718;SDS011;41623;46.104;19.656;2023-01-10T14:53:27;2.83;;;2.05;;
55718;SDS011;41623;46.104;19.656;2023-01-10T14:55:53;6.32;;;2.58;;
55718;SDS011;41623;46.104;19.656;2023-01-10T14:58:20;9.32;;;3.42;;
55718;SDS011;41623;46.104;19.656;2023-01-10T15:00:46;4.95;;;2.33;;
55718;SDS011;41623;46.104;19.656;2023-01-10T15:03:18;6.10;;;2.67;;
55718;SDS011;41623;46.104;19.656;2023-01-10T15:05:45;5.75;;;3.30;;
55718;SDS011;41623;46.104;19.656;2023-01-10T15:10:46;3.50;;;2.28;;
55718;SDS011;41623;46.104;19.656;2023-01-10T15:13:15;2.72;;;2.08;;
55718;SDS011;41623;46.104;19.656;2023-01-10T15:15:42;6.50;;;2.10;;
55718;SDS011;41623;46.104;19.656;2023-01-10T15:18:30;5.95;;;2.03;;
55718;SDS011;41623;46.104;19.656;2023-01-10T15:21:00;4.40;;;2.20;;
55718;SDS011;41623;46.104;19.656;2023-01-10T15:23:33;17.85;;;7.22;;
55718;SDS011;41623;46.104;19.656;2023-01-10T15:26:00;10.70;;;6.22;;
55718;SDS011;41623;46.104;19.656;2023-01-10T15:28:27;4.47;;;2.30;;
55718;SDS011;41623;46.104;19.656;2023-01-10T15:30:57;7.07;;;3.72;;
55718;SDS011;41623;46.104;19.656;2023-01-10T15:33:27;6.40;;;3.30;;
55718;SDS011;41623;46.104;19.656;2023-01-10T15:35:54;15.73;;;4.97;;
55718;SDS011;41623;46.104;19.656;2023-01-10T15:38:22;58.92;;;17.30;;
55718;SDS011;41623;46.104;19.656;2023-01-10T15:40:57;119.43;;;39.97;;
55718;SDS011;41623;46.104;19.656;2023-01-10T15:43:27;62.90;;;25.23;;
55718;SDS011;41623;46.104;19.656;2023-01-10T15:45:54;43.00;;;17.35;;
55718;SDS011;41623;46.104;19.656;2023-01-10T15:48:29;46.20;;;14.98;;
55718;SDS011;41623;46.104;19.656;2023-01-10T15:50:58;15.15;;;9.48;;
55718;SDS011;41623;46.104;19.656;2023-01-10T15:56:14;7.82;;;4.28;;
55718;SDS011;41623;46.104;19.656;2023-01-10T15:58:41;10.13;;;4.88;;
55718;SDS011;41623;46.104;19.656;2023-01-10T16:01:11;7.55;;;4.75;;
55718;SDS011;41623;46.104;19.656;2023-01-10T16:03:42;12.43;;;4.53;;
55718;SDS011;41623;46.104;19.656;2023-01-10T16:06:13;11.25;;;3.83;;
55718;SDS011;41623;46.104;19.656;2023-01-10T16:11:15;4.63;;;3.22;;
55718;SDS011;41623;46.104;19.656;2023-01-10T16:14:02;5.53;;;2.67;;
55718;SDS011;41623;46.104;19.656;2023-01-10T16:16:28;8.10;;;3.70;;
55718;SDS011;41623;46.104;19.656;2023-01-10T16:18:54;6.72;;;3.35;;
55718;SDS011;41623;46.104;19.656;2023-01-10T16:21:20;5.65;;;3.08;;
55718;SDS011;41623;46.104;19.656;2023-01-10T16:23:46;7.45;;;3.70;;
55718;SDS011;41623;46.104;19.656;2023-01-10T16:26:13;5.43;;;3.15;;
55718;SDS011;41623;46.104;19.656;2023-01-10T16:28:40;4.50;;;3.17;;
55718;SDS011;41623;46.104;19.656;2023-01-10T16:31:08;6.88;;;3.45;;
55718;SDS011;41623;46.104;19.656;2023-01-10T16:33:35;5.05;;;3.00;;
55718;SDS011;41623;46.104;19.656;2023-01-10T16:36:01;4.68;;;3.08;;
55718;SDS011;41623;46.104;19.656;2023-01-10T16:38:28;8.85;;;4.72;;
55718;SDS011;41623;46.104;19.656;2023-01-10T16:40:56;8.95;;;4.32;;